Beverly, MA (01915)

11:38 PM EDT on May 22, 2017 (GMT -0400)
Cedar-Cove | | Change Station

Elev 67 ft 42.55 °N, 70.87 °W | Updated 7 seconds ago

Rain
Rain
51.9 °F
Feels Like 51.9 °F
N
0.0
Wind Variable Wind from South

Today
High -- | Low -- °F
--% Chance of Precip.
Yesterday
High -- | Low -- °F
Precip. -- in
Pressure 29.98 in
Visibility 2.5 miles
Clouds Scattered Clouds 500 ft
Overcast 1200 ft
Dew Point 51 °F
Humidity 98%
Rainfall 0.15 in
Snow Depth Not available.
5:14 AM 8:06 PM
Waning Crescent, 10% visible
SPECI KBVY 230324Z AUTO 36003KT 2 1/2SM BR SCT005 OVC012 12/11 A2998 RMK AO2 RAE01 P0001 T01170111
Pressure 29.98 in
Visibility 2.5 miles
Clouds Scattered Clouds 500 ft
Overcast 1200 ft
Dew Point 51 °F
Humidity 98%
Rainfall 0.15 in
Snow Depth Not available.
5:14 AM 8:06 PM
Waning Crescent, 10% visible
SPECI KBVY 230324Z AUTO 36003KT 2 1/2SM BR SCT005 OVC012 12/11 A2998 RMK AO2 RAE01 P0001 T01170111

Get Severe Weather Alerts

Thanks for signing up!

Be on the lookout for a verification email in your inbox.

You'll start receiving the daily forecast at 6 AM.

×

10-Day Weather Forecast

Almanac

Astronomy

May. 22, 2017 Rise Set
Actual Time
Civil Twilight
Nautical Twilight
Astronomical Twilight
Moon
Length of Visible Light
Length of Day
Tomorrow will be .
, % of the Moon is Illuminated

Today's Extremes

State Highs State Lows

Community

WunderPhotos

Category 6

Welcome to Category 6. This is the collective home for Weather Underground's featured writeups by Dr. Jeff Masters (right), Bob Henson (left), Chris Burt, and other regular contributors.

Nearby

Air Quality

  Air Quality AQ Index Pollutant
Not available.

Snow Depth

Station Depth Elevation

Earthquake Activity

City Distance Mag. Time & Date
Minimum magnitude displayed is 2.5.

Coastal Water Temperatures

Place Temperature

Stations

Nearby Weather Stations

Station Location Temp. Windchill Dew Point Humidity Wind Precip. Elev Updated Type
                   

Watches & Warnings

There are currently no watches in effect.